sensor_id;sensor_type;location;lat;lon;timestamp;temperature;humidity
7796;DHT22;3942;51.518;6.912;2022-09-03T00:00:43;18.60;96.90
7796;DHT22;3942;51.518;6.912;2022-09-03T00:05:50;18.40;97.00
7796;DHT22;3942;51.518;6.912;2022-09-03T00:11:00;18.50;97.20
7796;DHT22;3942;51.518;6.912;2022-09-03T00:16:08;18.30;97.50
7796;DHT22;3942;51.518;6.912;2022-09-03T00:21:14;18.30;97.60
7796;DHT22;3942;51.518;6.912;2022-09-03T00:26:23;18.20;97.70
7796;DHT22;3942;51.518;6.912;2022-09-03T00:31:29;18.30;97.80
7796;DHT22;3942;51.518;6.912;2022-09-03T00:36:36;18.10;98.10
7796;DHT22;3942;51.518;6.912;2022-09-03T00:41:53;18.30;98.10
7796;DHT22;3942;51.518;6.912;2022-09-03T00:47:03;18.30;98.20
7796;DHT22;3942;51.518;6.912;2022-09-03T00:52:15;18.00;98.40
7796;DHT22;3942;51.518;6.912;2022-09-03T00:57:32;18.00;98.40
7796;DHT22;3942;51.518;6.912;2022-09-03T01:02:46;18.00;98.50
7796;DHT22;3942;51.518;6.912;2022-09-03T01:08:00;17.90;98.50
7796;DHT22;3942;51.518;6.912;2022-09-03T01:13:09;17.90;98.80
7796;DHT22;3942;51.518;6.912;2022-09-03T01:18:20;17.80;99.00
7796;DHT22;3942;51.518;6.912;2022-09-03T01:23:55;17.80;99.00
7796;DHT22;3942;51.518;6.912;2022-09-03T01:29:07;17.60;99.30
7796;DHT22;3942;51.518;6.912;2022-09-03T01:34:18;17.70;99.20
7796;DHT22;3942;51.518;6.912;2022-09-03T01:39:27;17.70;99.30
7796;DHT22;3942;51.518;6.912;2022-09-03T01:44:33;17.70;99.30
7796;DHT22;3942;51.518;6.912;2022-09-03T01:49:45;17.70;99.50
7796;DHT22;3942;51.518;6.912;2022-09-03T01:54:58;17.60;99.60
7796;DHT22;3942;51.518;6.912;2022-09-03T02:00:07;17.50;99.60
7796;DHT22;3942;51.518;6.912;2022-09-03T02:05:13;17.30;99.80
7796;DHT22;3942;51.518;6.912;2022-09-03T02:10:17;17.40;99.90
7796;DHT22;3942;51.518;6.912;2022-09-03T02:15:22;17.30;99.90
7796;DHT22;3942;51.518;6.912;2022-09-03T02:20:27;17.30;99.90
7796;DHT22;3942;51.518;6.912;2022-09-03T02:25:32;17.40;99.90
7796;DHT22;3942;51.518;6.912;2022-09-03T02:30:38;17.30;99.90
7796;DHT22;3942;51.518;6.912;2022-09-03T02:35:40;17.20;99.90
7796;DHT22;3942;51.518;6.912;2022-09-03T02:40:42;17.10;99.90
7796;DHT22;3942;51.518;6.912;2022-09-03T02:45:47;17.40;99.90
7796;DHT22;3942;51.518;6.912;2022-09-03T02:50:51;17.10;99.90
7796;DHT22;3942;51.518;6.912;2022-09-03T02:55:57;16.90;99.90
7796;DHT22;3942;51.518;6.912;2022-09-03T03:01:00;16.90;99.90
7796;DHT22;3942;51.518;6.912;2022-09-03T03:06:04;16.90;99.90
7796;DHT22;3942;51.518;6.912;2022-09-03T03:11:06;16.90;99.90
7796;DHT22;3942;51.518;6.912;2022-09-03T03:21:14;16.90;99.90
7796;DHT22;3942;51.518;6.912;2022-09-03T03:26:18;16.90;99.90
7796;DHT22;3942;51.518;6.912;2022-09-03T03:31:22;16.90;99.90
7796;DHT22;3942;51.518;6.912;2022-09-03T03:36:25;16.70;99.90
7796;DHT22;3942;51.518;6.912;2022-09-03T03:41:28;16.70;99.90
7796;DHT22;3942;51.518;6.912;2022-09-03T03:46:34;16.60;99.90
7796;DHT22;3942;51.518;6.912;2022-09-03T03:51:37;16.50;99.90
7796;DHT22;3942;51.518;6.912;2022-09-03T03:56:40;16.70;99.90
7796;DHT22;3942;51.518;6.912;2022-09-03T04:01:43;16.50;99.90
7796;DHT22;3942;51.518;6.912;2022-09-03T04:06:45;16.50;99.90
7796;DHT22;3942;51.518;6.912;2022-09-03T04:11:47;16.40;99.90
7796;DHT22;3942;51.518;6.912;2022-09-03T04:16:52;16.40;99.90
7796;DHT22;3942;51.518;6.912;2022-09-03T04:21:54;16.30;99.90
7796;DHT22;3942;51.518;6.912;2022-09-03T04:26:56;16.30;99.90
7796;DHT22;3942;51.518;6.912;2022-09-03T04:31:59;16.20;99.90
7796;DHT22;3942;51.518;6.912;2022-09-03T04:37:18;16.20;99.90
7796;DHT22;3942;51.518;6.912;2022-09-03T04:42:20;16.20;99.90
7796;DHT22;3942;51.518;6.912;2022-09-03T04:47:23;16.10;99.90
7796;DHT22;3942;51.518;6.912;2022-09-03T04:52:27;16.00;99.90
7796;DHT22;3942;51.518;6.912;2022-09-03T04:57:32;16.10;99.90
7796;DHT22;3942;51.518;6.912;2022-09-03T05:02:38;16.00;99.90
7796;DHT22;3942;51.518;6.912;2022-09-03T05:12:43;16.10;99.90
7796;DHT22;3942;51.518;6.912;2022-09-03T05:22:49;16.30;99.90
7796;DHT22;3942;51.518;6.912;2022-09-03T05:32:55;16.50;99.90
7796;DHT22;3942;51.518;6.912;2022-09-03T05:37:57;16.70;99.90
7796;DHT22;3942;51.518;6.912;2022-09-03T05:43:00;16.80;99.90
7796;DHT22;3942;51.518;6.912;2022-09-03T05:48:03;17.00;99.90
7796;DHT22;3942;51.518;6.912;2022-09-03T05:58:07;17.20;99.90
7796;DHT22;3942;51.518;6.912;2022-09-03T06:03:10;17.50;99.90
7796;DHT22;3942;51.518;6.912;2022-09-03T06:08:12;17.60;99.90
7796;DHT22;3942;51.518;6.912;2022-09-03T06:18:18;17.90;99.90
7796;DHT22;3942;51.518;6.912;2022-09-03T06:28:22;18.40;99.90
7796;DHT22;3942;51.518;6.912;2022-09-03T06:33:25;18.50;99.90
7796;DHT22;3942;51.518;6.912;2022-09-03T06:43:33;19.00;99.90
7796;DHT22;3942;51.518;6.912;2022-09-03T06:48:37;19.20;99.90
7796;DHT22;3942;51.518;6.912;2022-09-03T06:53:41;19.30;99.90
7796;DHT22;3942;51.518;6.912;2022-09-03T07:03:51;19.80;99.90
7796;DHT22;3942;51.518;6.912;2022-09-03T07:08:55;19.70;99.90
7796;DHT22;3942;51.518;6.912;2022-09-03T07:13:59;20.10;99.70
7796;DHT22;3942;51.518;6.912;2022-09-03T07:24:05;20.60;98.80
7796;DHT22;3942;51.518;6.912;2022-09-03T07:29:07;20.80;98.90
7796;DHT22;3942;51.518;6.912;2022-09-03T07:34:11;20.60;98.70
7796;DHT22;3942;51.518;6.912;2022-09-03T07:39:16;20.40;98.60
7796;DHT22;3942;51.518;6.912;2022-09-03T07:44:18;20.60;98.90
7796;DHT22;3942;51.518;6.912;2022-09-03T07:59:28;20.80;98.20
7796;DHT22;3942;51.518;6.912;2022-09-03T08:04:32;21.00;98.40
7796;DHT22;3942;51.518;6.912;2022-09-03T08:09:35;21.60;97.80
7796;DHT22;3942;51.518;6.912;2022-09-03T08:14:37;22.00;97.60
7796;DHT22;3942;51.518;6.912;2022-09-03T08:19:40;22.40;96.90
7796;DHT22;3942;51.518;6.912;2022-09-03T08:24:45;22.80;96.90
7796;DHT22;3942;51.518;6.912;2022-09-03T08:39:53;23.50;95.60
7796;DHT22;3942;51.518;6.912;2022-09-03T08:44:57;23.30;95.80
7796;DHT22;3942;51.518;6.912;2022-09-03T08:50:07;23.70;96.00
7796;DHT22;3942;51.518;6.912;2022-09-03T08:55:19;23.90;95.40
7796;DHT22;3942;51.518;6.912;2022-09-03T09:00:22;24.30;95.20
7796;DHT22;3942;51.518;6.912;2022-09-03T09:05:35;24.10;95.00
7796;DHT22;3942;51.518;6.912;2022-09-03T09:10:44;24.80;94.90
7796;DHT22;3942;51.518;6.912;2022-09-03T09:15:54;25.80;94.30
7796;DHT22;3942;51.518;6.912;2022-09-03T09:21:10;26.60;92.70
7796;DHT22;3942;51.518;6.912;2022-09-03T09:31:17;27.60;91.80
7796;DHT22;3942;51.518;6.912;2022-09-03T09:41:24;28.30;90.70
7796;DHT22;3942;51.518;6.912;2022-09-03T09:46:31;27.70;90.60
7796;DHT22;3942;51.518;6.912;2022-09-03T09:51:36;27.10;90.70
7796;DHT22;3942;51.518;6.912;2022-09-03T09:56:38;26.40;90.90
7796;DHT22;3942;51.518;6.912;2022-09-03T10:01:41;25.90;91.40
7796;DHT22;3942;51.518;6.912;2022-09-03T10:06:45;26.30;91.40
7796;DHT22;3942;51.518;6.912;2022-09-03T10:12:07;25.90;91.40
7796;DHT22;3942;51.518;6.912;2022-09-03T10:17:15;25.40;91.80
7796;DHT22;3942;51.518;6.912;2022-09-03T10:22:21;24.80;92.50
7796;DHT22;3942;51.518;6.912;2022-09-03T10:27:25;25.30;91.90
7796;DHT22;3942;51.518;6.912;2022-09-03T10:32:35;25.70;92.00
7796;DHT22;3942;51.518;6.912;2022-09-03T10:37:47;25.80;91.50
7796;DHT22;3942;51.518;6.912;2022-09-03T10:53:51;25.30;92.50
7796;DHT22;3942;51.518;6.912;2022-09-03T10:59:06;25.20;92.80
7796;DHT22;3942;51.518;6.912;2022-09-03T11:04:27;25.10;93.30
7796;DHT22;3942;51.518;6.912;2022-09-03T11:09:35;25.40;93.20
7796;DHT22;3942;51.518;6.912;2022-09-03T11:14:43;25.00;93.40
7796;DHT22;3942;51.518;6.912;2022-09-03T11:19:49;24.70;94.10
7796;DHT22;3942;51.518;6.912;2022-09-03T11:24:55;24.90;93.80
7796;DHT22;3942;51.518;6.912;2022-09-03T11:30:02;25.30;94.30
7796;DHT22;3942;51.518;6.912;2022-09-03T11:35:13;25.20;95.70
7796;DHT22;3942;51.518;6.912;2022-09-03T11:40:17;25.10;96.00
7796;DHT22;3942;51.518;6.912;2022-09-03T11:45:33;25.00;97.50
7796;DHT22;3942;51.518;6.912;2022-09-03T11:50:35;24.90;97.90
7796;DHT22;3942;51.518;6.912;2022-09-03T11:55:51;25.20;96.30
7796;DHT22;3942;51.518;6.912;2022-09-03T12:00:55;25.30;97.30
7796;DHT22;3942;51.518;6.912;2022-09-03T12:06:13;25.00;95.90
7796;DHT22;3942;51.518;6.912;2022-09-03T12:22:12;25.10;94.90
7796;DHT22;3942;51.518;6.912;2022-09-03T12:27:17;25.20;94.90
7796;DHT22;3942;51.518;6.912;2022-09-03T12:32:25;25.10;94.70
7796;DHT22;3942;51.518;6.912;2022-09-03T12:47:38;24.70;95.20
7796;DHT22;3942;51.518;6.912;2022-09-03T12:52:44;24.70;94.30
7796;DHT22;3942;51.518;6.912;2022-09-03T12:57:50;24.60;94.50
7796;DHT22;3942;51.518;6.912;2022-09-03T13:02:58;24.50;94.70
7796;DHT22;3942;51.518;6.912;2022-09-03T13:08:03;24.70;94.80
7796;DHT22;3942;51.518;6.912;2022-09-03T13:18:26;24.70;93.90
7796;DHT22;3942;51.518;6.912;2022-09-03T13:24:01;24.60;93.80
7796;DHT22;3942;51.518;6.912;2022-09-03T13:29:18;24.70;93.80
7796;DHT22;3942;51.518;6.912;2022-09-03T13:34:29;24.70;93.90
7796;DHT22;3942;51.518;6.912;2022-09-03T13:44:43;24.80;94.40
7796;DHT22;3942;51.518;6.912;2022-09-03T13:49:52;24.90;94.20
7796;DHT22;3942;51.518;6.912;2022-09-03T13:55:20;24.60;94.50
7796;DHT22;3942;51.518;6.912;2022-09-03T14:00:25;24.90;94.60
7796;DHT22;3942;51.518;6.912;2022-09-03T14:05:42;25.00;94.30
7796;DHT22;3942;51.518;6.912;2022-09-03T14:11:12;25.10;94.50
7796;DHT22;3942;51.518;6.912;2022-09-03T14:16:28;24.90;94.30
7796;DHT22;3942;51.518;6.912;2022-09-03T14:21:40;24.90;94.40
7796;DHT22;3942;51.518;6.912;2022-09-03T14:26:53;24.80;94.40
7796;DHT22;3942;51.518;6.912;2022-09-03T14:32:24;24.90;94.70
7796;DHT22;3942;51.518;6.912;2022-09-03T14:37:38;24.60;94.80
7796;DHT22;3942;51.518;6.912;2022-09-03T14:48:27;24.90;94.60
7796;DHT22;3942;51.518;6.912;2022-09-03T15:04:29;25.10;95.70
7796;DHT22;3942;51.518;6.912;2022-09-03T15:20:00;24.90;96.50
7796;DHT22;3942;51.518;6.912;2022-09-03T15:25:13;25.20;96.80
7796;DHT22;3942;51.518;6.912;2022-09-03T15:30:19;25.20;97.00
7796;DHT22;3942;51.518;6.912;2022-09-03T15:40:49;25.00;97.40
7796;DHT22;3942;51.518;6.912;2022-09-03T15:45:55;25.20;97.30
7796;DHT22;3942;51.518;6.912;2022-09-03T15:51:07;24.90;97.90
7796;DHT22;3942;51.518;6.912;2022-09-03T16:01:25;25.30;97.60
7796;DHT22;3942;51.518;6.912;2022-09-03T16:06:34;25.40;97.70
7796;DHT22;3942;51.518;6.912;2022-09-03T16:11:47;25.40;97.80
7796;DHT22;3942;51.518;6.912;2022-09-03T16:16:59;25.00;98.20
7796;DHT22;3942;51.518;6.912;2022-09-03T16:22:11;25.00;98.40
7796;DHT22;3942;51.518;6.912;2022-09-03T16:27:17;25.10;98.40
7796;DHT22;3942;51.518;6.912;2022-09-03T16:32:26;25.20;98.30
7796;DHT22;3942;51.518;6.912;2022-09-03T16:37:38;25.10;98.60
7796;DHT22;3942;51.518;6.912;2022-09-03T16:42:50;25.20;98.70
7796;DHT22;3942;51.518;6.912;2022-09-03T16:53:11;24.80;98.80
7796;DHT22;3942;51.518;6.912;2022-09-03T16:58:18;24.90;98.90
7796;DHT22;3942;51.518;6.912;2022-09-03T17:03:58;24.70;98.70
7796;DHT22;3942;51.518;6.912;2022-09-03T17:09:15;24.80;98.60
7796;DHT22;3942;51.518;6.912;2022-09-03T17:25:02;24.50;99.90
7796;DHT22;3942;51.518;6.912;2022-09-03T17:35:16;24.10;99.90
7796;DHT22;3942;51.518;6.912;2022-09-03T17:45:45;23.50;99.90
7796;DHT22;3942;51.518;6.912;2022-09-03T17:50:55;23.40;99.90
7796;DHT22;3942;51.518;6.912;2022-09-03T17:56:01;23.10;99.90
7796;DHT22;3942;51.518;6.912;2022-09-03T18:01:12;23.10;99.90
7796;DHT22;3942;51.518;6.912;2022-09-03T18:06:25;23.00;99.90
7796;DHT22;3942;51.518;6.912;2022-09-03T18:11:33;22.70;99.90
7796;DHT22;3942;51.518;6.912;2022-09-03T18:16:40;22.60;99.90
7796;DHT22;3942;51.518;6.912;2022-09-03T18:21:46;22.50;99.90
7796;DHT22;3942;51.518;6.912;2022-09-03T18:27:10;22.50;99.90
7796;DHT22;3942;51.518;6.912;2022-09-03T18:32:30;22.40;99.90
7796;DHT22;3942;51.518;6.912;2022-09-03T18:37:51;22.40;99.90
7796;DHT22;3942;51.518;6.912;2022-09-03T18:43:15;22.30;99.90
7796;DHT22;3942;51.518;6.912;2022-09-03T18:54:17;22.10;99.90
7796;DHT22;3942;51.518;6.912;2022-09-03T18:59:50;22.10;99.90
7796;DHT22;3942;51.518;6.912;2022-09-03T19:05:15;22.20;99.90
7796;DHT22;3942;51.518;6.912;2022-09-03T19:10:42;22.30;99.90
7796;DHT22;3942;51.518;6.912;2022-09-03T19:16:09;22.00;99.90
7796;DHT22;3942;51.518;6.912;2022-09-03T19:21:34;21.90;99.90
7796;DHT22;3942;51.518;6.912;2022-09-03T19:32:25;21.70;99.90
7796;DHT22;3942;51.518;6.912;2022-09-03T19:43:18;21.60;99.90
7796;DHT22;3942;51.518;6.912;2022-09-03T19:48:49;21.60;99.90
7796;DHT22;3942;51.518;6.912;2022-09-03T19:54:12;21.50;99.90
7796;DHT22;3942;51.518;6.912;2022-09-03T19:59:35;21.40;99.90
7796;DHT22;3942;51.518;6.912;2022-09-03T20:04:58;21.30;99.90
7796;DHT22;3942;51.518;6.912;2022-09-03T20:10:18;21.20;99.90
7796;DHT22;3942;51.518;6.912;2022-09-03T20:15:29;21.00;99.90
7796;DHT22;3942;51.518;6.912;2022-09-03T20:30:56;20.90;99.90
7796;DHT22;3942;51.518;6.912;2022-09-03T20:36:09;20.80;99.90
7796;DHT22;3942;51.518;6.912;2022-09-03T20:41:18;20.90;99.90
7796;DHT22;3942;51.518;6.912;2022-09-03T21:07:10;20.60;99.90
7796;DHT22;3942;51.518;6.912;2022-09-03T21:17:36;20.50;99.90
7796;DHT22;3942;51.518;6.912;2022-09-03T21:22:47;20.60;1.00
7796;DHT22;3942;51.518;6.912;2022-09-03T21:27:55;20.40;99.90
7796;DHT22;3942;51.518;6.912;2022-09-03T21:33:05;20.30;99.90
7796;DHT22;3942;51.518;6.912;2022-09-03T21:38:13;20.30;1.00
7796;DHT22;3942;51.518;6.912;2022-09-03T21:43:22;20.20;1.00
7796;DHT22;3942;51.518;6.912;2022-09-03T21:48:30;20.20;1.00
7796;DHT22;3942;51.518;6.912;2022-09-03T21:53:39;20.10;1.00
7796;DHT22;3942;51.518;6.912;2022-09-03T21:58:58;20.00;1.00
7796;DHT22;3942;51.518;6.912;2022-09-03T22:04:04;20.10;1.00
7796;DHT22;3942;51.518;6.912;2022-09-03T22:09:10;20.10;1.00
7796;DHT22;3942;51.518;6.912;2022-09-03T22:14:14;20.30;99.90
7796;DHT22;3942;51.518;6.912;2022-09-03T22:19:18;20.40;75.80
7796;DHT22;3942;51.518;6.912;2022-09-03T22:24:26;20.50;1.00
7796;DHT22;3942;51.518;6.912;2022-09-03T22:29:38;20.50;1.00
7796;DHT22;3942;51.518;6.912;2022-09-03T22:35:02;20.40;1.00
7796;DHT22;3942;51.518;6.912;2022-09-03T22:40:11;20.30;1.00
7796;DHT22;3942;51.518;6.912;2022-09-03T22:45:32;20.30;81.20
7796;DHT22;3942;51.518;6.912;2022-09-03T22:50:43;20.20;99.90
7796;DHT22;3942;51.518;6.912;2022-09-03T23:00:58;19.80;1.00
7796;DHT22;3942;51.518;6.912;2022-09-03T23:06:06;19.70;99.90
7796;DHT22;3942;51.518;6.912;2022-09-03T23:16:28;19.60;99.90
7796;DHT22;3942;51.518;6.912;2022-09-03T23:21:36;19.60;99.90
7796;DHT22;3942;51.518;6.912;2022-09-03T23:26:43;19.60;99.90
7796;DHT22;3942;51.518;6.912;2022-09-03T23:31:46;19.70;99.90
7796;DHT22;3942;51.518;6.912;2022-09-03T23:36:55;19.50;99.90
7796;DHT22;3942;51.518;6.912;2022-09-03T23:42:05;19.40;99.90
7796;DHT22;3942;51.518;6.912;2022-09-03T23:47:20;19.30;1.00
7796;DHT22;3942;51.518;6.912;2022-09-03T23:52:51;19.20;1.00
7796;DHT22;3942;51.518;6.912;2022-09-03T23:58:03;19.20;1.00
